Time;durP1;ratioP1;P1;durP2;ratioP2;P2;SDS_P1;SDS_P2;PMS_P1;PMS_P2;Temp;Humidity;BMP_temperature;BMP_pressure;BME280_temperature;BME280_humidity;BME280_pressure;Samples;Min_cycle;Max_cycle;Signal;HPM_P1;HPM_P2
2022/01/23 00:00:49;;;;;;;24.40;12.07;;;;;;;-3.46;76.58;100047.94;4996570;28;20397;-82
2022/01/23 00:03:18;;;;;;;31.90;13.05;;;;;;;-3.59;76.63;100025.84;5014423;28;20148;-82
2022/01/23 00:05:51;;;;;;;32.20;13.20;;;;;;;-3.48;76.66;100044.41;5015051;28;20522;-80
2022/01/23 00:08:23;;;;;;;28.83;13.50;;;;;;;-3.46;76.51;100052.13;5014545;28;20046;-80
2022/01/23 00:10:52;;;;;;;31.15;12.85;;;;;;;-3.47;76.86;100052.94;5015025;28;20144;-79
2022/01/23 00:18:39;;;;;;;31.25;13.93;;;;;;;-3.49;76.53;100063.03;5014994;28;20050;-81
2022/01/23 00:21:06;;;;;;;26.85;13.57;;;;;;;-3.47;76.29;100066.59;5014646;28;20054;-82
2022/01/23 00:30:18;;;;;;;29.90;13.27;;;;;;;-3.46;76.40;100063.25;4997421;28;20100;-81
2022/01/23 00:31:52;;;;;;;28.67;13.40;;;;;;;-3.52;76.25;100066.28;4997405;28;20057;-80
2022/01/23 00:34:19;;;;;;;25.00;12.23;;;;;;;-3.59;76.17;100079.47;5014854;28;20061;-79
2022/01/23 00:36:46;;;;;;;26.17;12.18;;;;;;;-3.68;76.73;100067.78;5015152;28;20523;-79
2022/01/23 00:39:14;;;;;;;31.17;13.90;;;;;;;-3.60;76.63;100071.72;4998200;28;20046;-82
2022/01/23 00:41:40;;;;;;;32.15;14.05;;;;;;;-3.39;76.35;100079.84;5023961;28;20060;-78
2022/01/23 00:44:07;;;;;;;31.45;13.80;;;;;;;-3.37;76.14;100078.28;5025381;28;20054;-80
2022/01/23 00:46:38;;;;;;;31.60;12.23;;;;;;;-3.37;75.93;100088.50;5024434;28;20057;-79
2022/01/23 00:51:37;;;;;;;28.08;13.07;;;;;;;-3.54;76.33;100078.09;5014351;28;20042;-80
2022/01/23 00:54:07;;;;;;;32.45;14.05;;;;;;;-3.56;76.71;100082.22;5015279;28;20504;-81
2022/01/23 00:56:34;;;;;;;26.15;11.52;;;;;;;-3.47;76.53;100104.03;5019038;28;20503;-80
2022/01/23 00:59:02;;;;;;;28.85;13.18;;;;;;;-3.51;76.28;100101.28;5014084;28;20058;-76
2022/01/23 01:01:30;;;;;;;28.38;13.05;;;;;;;-3.56;76.65;100101.78;5022014;28;20108;-78
2022/01/23 01:03:58;;;;;;;25.98;11.98;;;;;;;-3.55;76.70;100116.28;5023404;28;20061;-79
2022/01/23 01:06:24;;;;;;;26.63;10.60;;;;;;;-3.64;76.69;100106.38;5024219;28;20089;-78
2022/01/23 01:08:54;;;;;;;24.75;11.65;;;;;;;-3.68;76.53;100109.53;5006451;28;20054;-79
2022/01/23 01:11:55;;;;;;;27.63;12.88;;;;;;;-3.82;76.49;100103.53;5023332;28;20100;-78
2022/01/23 01:33:21;;;;;;;30.77;14.45;;;;;;;-3.63;76.86;100143.03;5012638;28;20198;-79
2022/01/23 01:38:16;;;;;;;29.23;13.75;;;;;;;-3.31;75.79;100145.97;5018174;28;20054;-78
2022/01/23 01:40:43;;;;;;;29.40;14.18;;;;;;;-3.32;76.03;100145.84;5013456;28;20085;-80
2022/01/23 01:43:10;;;;;;;29.35;13.43;;;;;;;-3.22;76.27;100162.66;5012161;28;20472;-79
2022/01/23 01:45:40;;;;;;;27.50;13.15;;;;;;;-3.21;75.57;100151.63;5013491;28;20077;-78
2022/01/23 01:48:20;;;;;;;28.35;13.13;;;;;;;-3.24;75.63;100146.34;5012649;28;20058;-77
2022/01/23 01:50:51;;;;;;;29.02;13.57;;;;;;;-3.23;75.86;100169.41;5012421;28;20049;-78
2022/01/23 01:53:18;;;;;;;28.15;13.38;;;;;;;-3.27;76.23;100166.56;5012602;28;20060;-80
2022/01/23 01:55:49;;;;;;;31.27;13.23;;;;;;;-3.27;76.17;100166.56;5013206;28;20054;-80
2022/01/23 01:59:09;;;;;;;27.30;12.55;;;;;;;-3.21;76.13;100167.84;5015947;28;20057;-81
2022/01/23 02:09:45;;;;;;;21.90;10.23;;;;;;;-3.31;75.55;100196.19;5015218;28;20045;-80
2022/01/23 02:50:54;;;;;;;27.55;11.77;;;;;;;-3.62;75.88;100258.03;5000075;28;20152;-80
2022/01/23 02:56:20;;;;;;;25.90;10.82;;;;;;;-3.84;76.08;100235.31;5016999;28;20058;-79
2022/01/23 02:58:58;;;;;;;26.98;12.23;;;;;;;-3.67;76.33;100269.63;5003553;28;20060;-78
2022/01/23 03:01:30;;;;;;;27.75;11.50;;;;;;;-3.63;76.12;100261.38;4983605;28;20109;-81
2022/01/23 03:04:23;;;;;;;28.13;12.70;;;;;;;-3.48;76.25;100273.38;5000128;28;20100;-81
2022/01/23 03:15:20;;;;;;;26.73;11.63;;;;;;;-3.73;76.02;100320.28;5002408;28;20058;-78
2022/01/23 03:31:27;;;;;;;30.95;12.35;;;;;;;-3.84;76.16;100317.00;4980533;28;20051;-82
2022/01/23 03:33:54;;;;;;;24.92;11.27;;;;;;;-3.88;75.96;100316.69;4997546;28;20050;-81
2022/01/23 03:36:20;;;;;;;25.40;11.20;;;;;;;-3.92;76.38;100330.91;4999766;28;20055;-79
2022/01/23 03:38:47;;;;;;;22.50;10.85;;;;;;;-3.91;75.82;100333.56;4981779;28;20050;-78
2022/01/23 03:41:15;;;;;;;26.58;11.98;;;;;;;-3.96;75.93;100337.47;4996701;28;20109;-79
2022/01/23 03:43:43;;;;;;;27.67;12.35;;;;;;;-4.01;76.34;100333.72;4995239;28;20050;-80
2022/01/23 03:51:44;;;;;;;25.58;10.77;;;;;;;-4.00;75.98;100355.00;4979082;28;20080;-79
2022/01/23 03:54:11;;;;;;;26.88;11.85;;;;;;;-4.00;75.90;100352.44;4996454;28;20046;-80
2022/01/23 03:56:38;;;;;;;30.60;11.43;;;;;;;-3.98;76.25;100367.13;4959708;28;20069;-81
2022/01/23 03:59:05;;;;;;;26.52;11.23;;;;;;;-3.98;76.51;100358.53;4995850;28;20058;-81
2022/01/23 04:01:32;;;;;;;28.73;12.13;;;;;;;-3.92;76.07;100371.75;5002875;28;20527;-82
2022/01/23 04:04:03;;;;;;;28.67;11.88;;;;;;;-3.95;76.27;100374.97;5000308;28;20057;-81
2022/01/23 04:06:31;;;;;;;25.77;11.25;;;;;;;-3.90;76.26;100380.38;5002610;28;20471;-81
2022/01/23 04:08:58;;;;;;;22.85;10.82;;;;;;;-3.92;76.19;100385.38;5001176;28;20065;-80
2022/01/23 04:11:25;;;;;;;24.17;11.32;;;;;;;-3.95;76.08;100377.53;5015298;28;20060;-82
2022/01/23 04:14:00;;;;;;;28.30;12.57;;;;;;;-3.92;76.27;100395.59;5016502;28;20054;-81
2022/01/23 04:59:55;;;;;;;25.35;12.07;;;;;;;-3.69;76.19;100462.69;5001597;28;20077;-81
2022/01/23 05:03:12;;;;;;;24.95;11.75;;;;;;;-3.43;75.84;100467.03;5016604;28;20132;-79
2022/01/23 05:05:59;;;;;;;23.85;11.43;;;;;;;-3.17;75.04;100467.94;4977863;28;20065;-80
2022/01/23 05:08:46;;;;;;;26.95;12.02;;;;;;;-3.21;74.99;100482.16;5014360;28;20092;-81
2022/01/23 05:11:37;;;;;;;26.25;12.13;;;;;;;-3.29;75.29;100478.22;5004339;28;20058;-79
2022/01/23 05:14:11;;;;;;;26.77;12.75;;;;;;;-3.21;75.46;100486.41;4981976;28;20439;-79
2022/01/23 05:16:38;;;;;;;24.30;11.48;;;;;;;-3.22;75.37;100493.19;5000615;28;20054;-81
2022/01/23 05:19:06;;;;;;;27.85;12.10;;;;;;;-3.21;75.33;100496.63;4961992;28;20061;-79
2022/01/23 05:24:21;;;;;;;27.55;12.15;;;;;;;-3.27;75.12;100512.41;4999399;28;20146;-81
2022/01/23 05:26:48;;;;;;;26.70;12.70;;;;;;;-3.32;75.61;100527.41;4978502;28;20508;-81
2022/01/23 05:29:15;;;;;;;25.30;12.23;;;;;;;-3.45;74.90;100504.38;5002026;28;20054;-78
2022/01/23 05:31:42;;;;;;;28.42;12.95;;;;;;;-3.42;75.28;100540.38;4985762;28;20058;-79
2022/01/23 05:34:11;;;;;;;21.75;10.40;;;;;;;-3.48;75.43;100539.94;5001853;28;20250;-80
2022/01/23 05:36:38;;;;;;;30.58;12.80;;;;;;;-3.53;75.51;100547.28;4980940;28;20054;-80
2022/01/23 05:39:06;;;;;;;24.80;11.68;;;;;;;-3.54;75.68;100540.38;4977880;28;20495;-81
2022/01/23 05:41:34;;;;;;;28.05;11.98;;;;;;;-3.48;75.71;100552.69;4996029;28;20073;-79
2022/01/23 05:44:02;;;;;;;24.17;12.27;;;;;;;-3.35;75.01;100552.78;4999071;28;20039;-79
2022/01/23 05:46:30;;;;;;;26.20;12.32;;;;;;;-3.38;74.77;100556.78;5000093;28;20050;-78
2022/01/23 05:49:01;;;;;;;29.55;12.40;;;;;;;-3.47;75.64;100559.56;5001227;28;20026;-78
2022/01/23 05:51:47;;;;;;;25.55;11.55;;;;;;;-3.41;74.80;100575.34;5017711;28;20044;-77
2022/01/23 05:54:35;;;;;;;23.60;11.35;;;;;;;-3.51;75.10;100558.50;5013285;28;20145;-78
2022/01/23 05:57:35;;;;;;;25.65;12.15;;;;;;;-3.53;75.14;100570.25;4972735;28;20050;-77
2022/01/23 06:00:20;;;;;;;24.20;11.07;;;;;;;-3.56;75.61;100569.16;4977938;28;20061;-79
2022/01/23 06:02:59;;;;;;;26.50;11.68;;;;;;;-3.57;75.14;100575.94;4976250;28;20069;-78
2022/01/23 06:05:36;;;;;;;27.77;12.65;;;;;;;-3.50;74.86;100588.34;4976297;28;20527;-79
2022/01/23 06:08:07;;;;;;;27.00;12.18;;;;;;;-3.40;75.43;100578.78;4980990;28;20050;-78
2022/01/23 06:10:53;;;;;;;29.30;13.15;;;;;;;-3.47;74.49;100545.91;4977269;28;20050;-79
2022/01/23 06:13:24;;;;;;;25.75;12.30;;;;;;;-3.30;74.91;100586.31;4977070;28;20496;-78
2022/01/23 06:15:52;;;;;;;24.90;11.50;;;;;;;-3.33;74.58;100586.97;4977090;28;20119;-81
2022/01/23 06:18:20;;;;;;;26.92;12.98;;;;;;;-3.36;74.91;100601.19;4992578;28;20070;-79
2022/01/23 06:21:07;;;;;;;32.95;13.25;;;;;;;-3.22;74.50;100617.53;5015199;28;20037;-78
2022/01/23 06:23:33;;;;;;;34.38;14.25;;;;;;;-3.05;74.30;100623.78;5016369;28;20058;-78
2022/01/23 06:26:22;;;;;;;26.10;12.00;;;;;;;-3.04;73.74;100625.56;5004010;28;20066;-79
2022/01/23 06:28:55;;;;;;;31.95;13.48;;;;;;;-3.11;74.27;100614.03;5003864;28;20054;-80
2022/01/23 06:31:22;;;;;;;25.27;11.85;;;;;;;-3.14;74.34;100624.03;5013029;28;20055;-80
2022/01/23 06:33:49;;;;;;;27.42;12.45;;;;;;;-3.22;74.46;100631.19;4996411;28;20050;-79
2022/01/23 06:36:16;;;;;;;28.80;12.65;;;;;;;-3.30;74.82;100645.06;4993851;28;20062;-79
2022/01/23 06:38:43;;;;;;;26.45;12.70;;;;;;;-3.17;74.27;100642.59;4977324;28;20090;-79
2022/01/23 06:41:11;;;;;;;26.83;12.32;;;;;;;-3.21;74.37;100650.81;4975900;28;20058;-82
2022/01/23 06:43:53;;;;;;;24.98;11.77;;;;;;;-3.13;74.03;100657.38;4993566;28;20061;-79
2022/01/23 06:46:29;;;;;;;28.60;12.23;;;;;;;-2.98;74.04;100664.34;4976161;28;20058;-80
2022/01/23 06:48:55;;;;;;;25.15;11.88;;;;;;;-2.88;73.53;100659.13;4976302;28;20142;-78
2022/01/23 06:51:23;;;;;;;30.42;12.45;;;;;;;-2.82;73.13;100669.75;4977361;28;20529;-78
2022/01/23 06:53:52;;;;;;;25.38;12.75;;;;;;;-2.88;73.20;100679.56;4976365;28;20111;-80
2022/01/23 06:56:19;;;;;;;27.60;12.57;;;;;;;-3.00;73.62;100669.34;4975745;28;20108;-81
2022/01/23 06:58:47;;;;;;;27.77;12.15;;;;;;;-2.78;73.57;100684.50;4974967;28;20054;-79
2022/01/23 07:01:15;;;;;;;29.20;11.93;;;;;;;-2.74;73.01;100677.97;4998299;28;20512;-84
2022/01/23 07:03:47;;;;;;;23.73;10.77;;;;;;;-2.98;72.82;100669.47;4974680;28;20500;-82
2022/01/23 07:06:56;;;;;;;29.42;13.20;;;;;;;-3.03;73.42;100674.25;5118153;27;20396;-84
2022/01/23 07:09:52;;;;;;;26.17;12.48;;;;;;;-2.96;73.22;100686.69;5100738;28;20047;-83
2022/01/23 07:12:33;;;;;;;30.67;13.32;;;;;;;-2.76;72.86;100690.63;5070165;28;20048;-87
2022/01/23 07:15:36;;;;;;;26.83;11.85;;;;;;;-2.77;72.11;100704.22;5058076;28;20106;-83
2022/01/23 07:18:06;;;;;;;30.38;13.25;;;;;;;-2.98;72.77;100679.69;5090747;28;20500;-84
2022/01/23 07:20:38;;;;;;;25.73;12.45;;;;;;;-2.88;72.90;100694.91;5082199;28;20074;-81
2022/01/23 07:23:13;;;;;;;26.77;12.35;;;;;;;-2.78;73.03;100704.97;5081495;28;20044;-80
2022/01/23 07:25:42;;;;;;;26.17;11.13;;;;;;;-2.76;72.44;100721.31;5085870;28;20438;-79
2022/01/23 07:28:13;;;;;;;24.35;10.93;;;;;;;-2.96;72.41;100703.69;5076225;28;20052;-81
2022/01/23 07:30:49;;;;;;;23.73;11.93;;;;;;;-3.01;72.60;100730.59;5097183;28;20054;-84
2022/01/23 07:33:17;;;;;;;27.67;12.55;;;;;;;-3.15;72.90;100712.59;5076963;28;20052;-80
2022/01/23 07:35:46;;;;;;;27.15;11.73;;;;;;;-2.98;73.05;100730.81;5075719;28;20117;-81
2022/01/23 07:38:16;;;;;;;27.15;12.38;;;;;;;-2.84;72.75;100742.03;5079409;28;20052;-81
2022/01/23 07:40:52;;;;;;;25.50;11.85;;;;;;;-2.72;72.21;100737.78;5080333;28;20076;-80
2022/01/23 07:43:41;;;;;;;22.77;11.45;;;;;;;-2.75;72.17;100752.91;5084601;28;20048;-82
2022/01/23 07:46:28;;;;;;;30.15;14.18;;;;;;;-2.67;72.11;100741.53;5097537;28;20439;-80
2022/01/23 07:49:33;;;;;;;23.38;11.25;;;;;;;-2.66;71.54;100743.31;5015377;28;20461;-82
2022/01/23 07:52:20;;;;;;;25.92;11.00;;;;;;;-2.65;72.14;100754.44;5017620;28;20476;-82
2022/01/23 07:55:06;;;;;;;23.02;11.23;;;;;;;-2.62;72.21;100757.22;5074378;28;20059;-83
2022/01/23 07:57:35;;;;;;;21.73;10.93;;;;;;;-2.63;71.90;100765.66;5091862;28;20105;-83
2022/01/23 08:00:19;;;;;;;21.98;10.27;;;;;;;-2.70;71.86;100765.22;5090683;28;20465;-81
2022/01/23 08:02:46;;;;;;;23.40;10.68;;;;;;;-2.81;71.92;100768.72;5109316;28;20054;-80
2022/01/23 08:05:43;;;;;;;23.45;11.18;;;;;;;-2.89;72.15;100777.50;5072873;28;20427;-80
2022/01/23 08:08:29;;;;;;;22.67;10.68;;;;;;;-2.80;72.06;100780.69;5088964;28;20088;-81
2022/01/23 08:11:06;;;;;;;27.33;12.00;;;;;;;-2.54;71.88;100785.13;5088671;28;20139;-80
2022/01/23 08:13:33;;;;;;;24.38;11.13;;;;;;;-2.41;71.08;100791.09;5092653;28;20052;-80
2022/01/23 08:16:00;;;;;;;23.40;10.40;;;;;;;-2.38;71.06;100794.75;5088880;28;20476;-86
2022/01/23 08:18:27;;;;;;;22.83;10.75;;;;;;;-2.28;70.85;100806.50;5056744;28;20420;-80
2022/01/23 08:20:54;;;;;;;28.83;12.07;;;;;;;-2.06;70.16;100803.78;5080729;28;20490;-80
2022/01/23 08:23:21;;;;;;;26.95;12.02;;;;;;;-1.93;69.98;100802.94;5085702;28;20083;-85
2022/01/23 08:25:48;;;;;;;23.60;11.38;;;;;;;-1.60;69.49;100813.69;5083867;28;20075;-83
2022/01/23 08:28:16;;;;;;;21.05;10.35;;;;;;;-1.45;68.54;100814.72;5078470;28;20091;-80
2022/01/23 08:30:43;;;;;;;25.65;11.50;;;;;;;-1.42;68.62;100812.34;5088543;28;20056;-81
2022/01/23 08:33:10;;;;;;;24.83;10.70;;;;;;;-1.49;68.70;100813.59;5075221;28;20056;-82
2022/01/23 08:35:37;;;;;;;26.33;11.30;;;;;;;-1.47;69.14;100827.41;5075471;28;20109;-82
2022/01/23 08:38:03;;;;;;;21.38;10.90;;;;;;;-1.42;68.74;100819.16;5075372;28;20049;-83
2022/01/23 08:43:10;;;;;;;21.35;11.05;;;;;;;-1.24;67.72;100839.19;5075337;28;20060;-80
2022/01/23 08:45:39;;;;;;;20.88;10.68;;;;;;;-1.23;68.14;100842.66;5057616;28;20082;-82
2022/01/23 08:48:06;;;;;;;22.52;10.07;;;;;;;-1.10;68.21;100846.91;5075183;28;20064;-80
2022/01/23 08:50:33;;;;;;;23.55;11.13;;;;;;;-1.11;67.58;100842.59;5076177;28;20056;-80
2022/01/23 08:53:00;;;;;;;23.27;11.07;;;;;;;-1.13;67.50;100832.22;5075308;28;20106;-82
2022/01/23 08:55:27;;;;;;;23.60;11.15;;;;;;;-1.19;67.43;100833.50;5075682;28;20141;-82
2022/01/23 08:57:55;;;;;;;23.35;11.60;;;;;;;-1.16;67.42;100849.97;5076511;28;20060;-80
2022/01/23 09:00:29;;;;;;;19.50;10.43;;;;;;;-1.30;67.64;100855.84;5075745;28;20052;-81
2022/01/23 09:02:56;;;;;;;25.85;11.70;;;;;;;-1.31;67.52;100872.94;5056366;28;20508;-82
2022/01/23 09:05:24;;;;;;;20.30;9.93;;;;;;;-1.39;67.65;100862.94;5072964;28;20122;-81
2022/01/23 09:07:51;;;;;;;24.02;11.80;;;;;;;-1.47;67.46;100857.28;5074858;28;20102;-79
2022/01/23 09:10:25;;;;;;;23.23;11.00;;;;;;;-1.27;67.54;100869.78;5047392;28;20091;-81
2022/01/23 09:15:24;;;;;;;23.35;12.10;;;;;;;-0.53;65.47;100866.00;5084546;28;20060;-80
2022/01/23 09:17:51;;;;;;;21.40;11.75;;;;;;;-0.45;64.82;100855.41;5073590;28;20028;-85
2022/01/23 09:20:18;;;;;;;24.77;12.43;;;;;;;-0.54;65.35;100887.28;5093753;28;20067;-82
2022/01/23 09:22:45;;;;;;;24.10;12.10;;;;;;;-0.86;65.96;100863.00;5093731;28;20056;-84
2022/01/23 09:25:15;;;;;;;24.42;12.50;;;;;;;-1.08;66.55;100859.03;5095333;28;20112;-80
2022/01/23 09:27:42;;;;;;;24.88;11.88;;;;;;;-1.08;66.51;100866.72;5077666;28;20051;-82
2022/01/23 09:30:17;;;;;;;23.05;12.27;;;;;;;-0.91;66.25;100879.78;5056660;28;20059;-83
2022/01/23 09:32:46;;;;;;;24.00;11.80;;;;;;;-0.87;65.69;100871.50;5075299;28;20055;-81
2022/01/23 09:35:14;;;;;;;25.48;11.65;;;;;;;-0.83;65.43;100888.88;5077525;28;20060;-83
2022/01/23 09:37:44;;;;;;;23.45;11.43;;;;;;;-0.75;65.78;100895.41;5074837;28;20060;-82
2022/01/23 09:40:13;;;;;;;26.17;13.23;;;;;;;-0.89;66.43;100884.22;5075075;28;20052;-83
2022/01/23 09:42:54;;;;;;;26.35;12.70;;;;;;;-0.83;65.96;100904.28;5075670;28;20071;-81
2022/01/23 09:45:22;;;;;;;;;;;;;;;-0.78;67.14;100896.88;5089642;28;20428;-81
2022/01/23 09:47:53;;;;;;;26.10;12.43;;;;;;;-0.61;65.69;100893.72;5074461;28;19928;-81
2022/01/23 09:50:20;;;;;;;22.52;11.88;;;;;;;-0.40;64.77;100891.66;5048263;28;20075;-82
2022/01/23 09:52:48;;;;;;;25.00;12.02;;;;;;;-0.26;64.65;100897.63;5052020;28;20052;-82
2022/01/23 09:55:15;;;;;;;24.85;11.65;;;;;;;-0.17;64.56;100916.22;5079939;28;20049;-80
2022/01/23 09:57:48;;;;;;;20.85;11.02;;;;;;;-0.47;64.68;100912.59;5084246;28;20044;-80
2022/01/23 10:00:26;;;;;;;23.08;11.43;;;;;;;-0.46;65.13;100917.81;5084163;28;20048;-80
2022/01/23 10:02:53;;;;;;;24.27;12.13;;;;;;;-0.44;64.82;100917.91;5051421;28;20155;-81
2022/01/23 10:05:22;;;;;;;22.85;11.88;;;;;;;-0.43;64.94;100930.84;5077894;28;20048;-86
2022/01/23 10:07:49;;;;;;;25.85;12.95;;;;;;;-0.58;65.06;100924.72;5063521;28;20052;-85
2022/01/23 10:10:22;;;;;;;26.45;12.45;;;;;;;-0.71;65.42;100925.63;5074858;28;20143;-81
2022/01/23 10:12:54;;;;;;;23.23;12.65;;;;;;;-0.47;64.99;100939.13;5074847;28;20488;-83
2022/01/23 10:15:25;;;;;;;26.48;12.63;;;;;;;-0.44;65.19;100930.75;5061255;28;20414;-81
2022/01/23 10:17:56;;;;;;;25.38;12.50;;;;;;;-0.56;64.83;100927.38;5082922;28;20120;-80
2022/01/23 10:20:24;;;;;;;22.65;11.52;;;;;;;-0.68;65.60;100930.06;5095852;28;20048;-81
2022/01/23 10:22:52;;;;;;;23.92;11.45;;;;;;;-0.63;64.81;100923.53;5078049;28;20079;-80
2022/01/23 10:25:25;;;;;;;24.60;11.45;;;;;;;-0.60;64.96;100961.31;5089823;28;20051;-80
2022/01/23 10:27:56;;;;;;;24.67;11.02;;;;;;;-0.69;64.78;100953.91;5081260;28;20052;-84
2022/01/23 10:30:25;;;;;;;21.58;11.70;;;;;;;-0.68;65.30;100954.03;5069160;28;20357;-79
2022/01/23 10:33:06;;;;;;;21.98;10.73;;;;;;;-0.79;65.11;100939.59;5085296;28;20077;-80
2022/01/23 10:35:51;;;;;;;20.63;11.00;;;;;;;-0.94;65.19;100961.69;5089222;28;20048;-81
2022/01/23 10:38:19;;;;;;;21.98;11.40;;;;;;;-1.12;66.13;100961.31;5073636;28;20081;-83
2022/01/23 10:41:02;;;;;;;25.65;13.20;;;;;;;-1.24;66.22;100956.25;5072752;28;20052;-83
2022/01/23 10:49:20;;;;;;;28.40;13.57;;;;;;;-1.28;66.40;100967.97;4975097;28;20054;-79
2022/01/23 10:51:50;;;;;;;26.05;12.85;;;;;;;-1.17;66.04;100976.41;4972287;28;20055;-81
2022/01/23 10:54:21;;;;;;;24.77;12.48;;;;;;;-1.13;66.15;100978.38;5012342;28;20110;-79
2022/01/23 10:56:59;;;;;;;;;;;;;;;-1.33;66.56;100976.16;5053128;28;20106;-80
2022/01/23 10:59:42;;;;;;;25.30;12.32;;;;;;;-1.43;66.93;100974.63;5079574;28;19924;-80
2022/01/23 11:02:12;;;;;;;24.45;12.00;;;;;;;-1.45;66.83;100959.13;5079287;28;20040;-81
2022/01/23 11:04:56;;;;;;;27.05;12.98;;;;;;;-1.12;66.53;100984.41;5082404;28;20467;-80
2022/01/23 11:07:25;;;;;;;24.77;12.48;;;;;;;-0.74;66.09;100988.66;5081422;28;20053;-80
2022/01/23 11:09:56;;;;;;;27.17;11.80;;;;;;;-0.66;65.09;100992.63;5078661;28;20086;-79
2022/01/23 11:12:43;;;;;;;25.57;13.30;;;;;;;-0.89;65.43;100999.66;5081086;28;20052;-80
2022/01/23 11:18:08;;;;;;;26.13;11.77;;;;;;;-0.99;66.42;101001.50;5063235;28;20044;-81
2022/01/23 11:20:48;;;;;;;23.13;11.93;;;;;;;-1.05;66.03;101018.28;5082578;28;20083;-78
2022/01/23 11:23:17;;;;;;;24.73;11.98;;;;;;;-1.14;66.04;101014.16;5085030;28;20411;-81
2022/01/23 11:26:04;;;;;;;28.40;13.43;;;;;;;-1.20;66.37;101019.78;5047873;28;20048;-79
2022/01/23 11:28:36;;;;;;;24.08;11.85;;;;;;;-1.19;66.08;101026.69;5083007;28;20044;-81
2022/01/23 11:31:09;;;;;;;23.80;12.27;;;;;;;-1.21;66.31;101019.69;5079315;28;20110;-80
2022/01/23 11:33:37;;;;;;;27.20;12.52;;;;;;;-1.39;66.03;101009.94;5079693;28;20064;-80
2022/01/23 11:36:04;;;;;;;26.10;12.68;;;;;;;-1.22;66.79;101020.47;5082407;28;20471;-83
2022/01/23 11:38:32;;;;;;;26.73;13.20;;;;;;;-1.27;66.24;100994.50;5084350;28;20052;-82
2022/01/23 11:55:28;;;;;;;26.80;13.15;;;;;;;-1.01;66.32;101059.50;5086339;28;20094;-79
2022/01/23 11:57:56;;;;;;;24.17;12.27;;;;;;;-1.26;66.40;101065.50;5082944;28;20055;-80
2022/01/23 12:00:31;;;;;;;29.95;14.32;;;;;;;-1.48;67.00;101047.75;5068038;28;20102;-83
2022/01/23 12:03:19;;;;;;;24.88;12.23;;;;;;;-1.34;66.79;101077.78;5083500;28;20044;-80
2022/01/23 12:06:10;;;;;;;25.27;11.95;;;;;;;-1.57;66.97;101085.50;5098158;28;20457;-80
2022/01/23 12:08:37;;;;;;;26.67;13.50;;;;;;;-1.81;67.76;101075.28;5096626;28;20055;-81
2022/01/23 12:17:03;;;;;;;29.52;14.60;;;;;;;-1.80;67.79;101077.09;5061735;28;20427;-82
2022/01/23 12:19:52;;;;;;;28.85;14.18;;;;;;;-1.86;67.18;101061.28;5054812;28;20428;-81
2022/01/23 12:22:25;;;;;;;30.98;13.77;;;;;;;-1.95;67.68;101068.31;5086436;28;20043;-85
2022/01/23 12:24:58;;;;;;;29.23;14.00;;;;;;;-1.93;67.88;101080.44;5092003;28;20530;-83
2022/01/23 12:27:31;;;;;;;31.38;14.93;;;;;;;-2.15;68.26;101056.59;5081510;28;20061;-83
2022/01/23 12:30:28;;;;;;;33.58;15.45;;;;;;;-2.11;68.27;101074.88;5075330;28;20056;-82
2022/01/23 12:33:13;;;;;;;34.95;16.42;;;;;;;-1.94;68.17;101086.31;5055592;28;20419;-82
2022/01/23 12:35:43;;;;;;;34.42;15.43;;;;;;;-1.81;67.93;101093.22;5076322;28;20061;-82
2022/01/23 12:38:13;;;;;;;35.30;15.35;;;;;;;-1.75;68.06;101090.22;5075372;28;20056;-81
2022/01/23 12:40:47;;;;;;;32.10;15.40;;;;;;;-1.69;67.76;101111.16;5075523;28;20076;-82
2022/01/23 12:43:18;;;;;;;32.05;14.90;;;;;;;-1.60;67.20;101103.25;5056446;28;20062;-80
2022/01/23 12:45:53;;;;;;;32.67;15.93;;;;;;;-1.83;67.37;101086.22;5057119;28;20060;-81
2022/01/23 12:48:26;;;;;;;34.13;15.80;;;;;;;-1.84;68.16;101104.94;5075225;28;20069;-81
2022/01/23 12:50:57;;;;;;;36.25;17.20;;;;;;;-1.77;68.09;101118.28;5089727;28;20063;-81
2022/01/23 12:53:36;;;;;;;;;;;;;;;-2.01;68.51;101119.94;5075094;28;20056;-81
2022/01/23 12:56:10;;;;;;;30.98;15.63;;;;;;;-2.19;69.08;101098.13;5074722;28;19924;-83
2022/01/23 12:58:37;;;;;;;33.25;15.80;;;;;;;-2.31;69.29;101090.41;5073806;28;20045;-80
2022/01/23 13:01:07;;;;;;;37.83;17.02;;;;;;;-2.11;69.20;101127.72;5074387;28;20416;-82
2022/01/23 13:03:37;;;;;;;33.83;15.95;;;;;;;-2.19;69.24;101127.16;5074733;28;20504;-81
2022/01/23 13:06:07;;;;;;;40.08;16.50;;;;;;;-2.18;69.59;101138.28;5074504;28;20065;-80
2022/01/23 13:08:44;;;;;;;34.47;17.02;;;;;;;-2.08;69.45;101120.28;5074099;28;20052;-80
2022/01/23 13:14:01;;;;;;;34.03;15.48;;;;;;;-2.06;68.89;101132.41;5054415;28;20053;-81
2022/01/23 13:19:22;;;;;;;34.72;15.77;;;;;;;-2.24;69.44;101150.63;5055108;28;20098;-81
2022/01/23 13:30:19;;;;;;;33.35;15.73;;;;;;;-2.36;69.87;101171.09;5044023;28;20052;-81
2022/01/23 13:33:01;;;;;;;33.15;15.93;;;;;;;-2.60;69.48;101158.22;5067947;28;20056;-81
2022/01/23 13:35:36;;;;;;;31.95;16.00;;;;;;;-2.69;70.12;101153.28;5053363;28;20049;-82
2022/01/23 13:38:15;;;;;;;31.80;15.75;;;;;;;-2.64;70.29;101180.88;5039327;28;20076;-80
2022/01/23 13:40:43;;;;;;;32.33;16.33;;;;;;;-2.69;70.19;101155.84;5041176;28;20048;-79
2022/01/23 14:00:12;;;;;;;34.80;16.45;;;;;;;-2.89;70.98;101207.09;5077156;28;20495;-83
2022/01/23 14:02:44;;;;;;;35.83;16.52;;;;;;;-2.85;70.85;101229.59;5063766;28;20269;-80
2022/01/23 14:05:19;;;;;;;36.20;17.13;;;;;;;-2.77;71.24;101241.31;5099186;28;20124;-80
2022/01/23 14:07:57;;;;;;;35.22;15.57;;;;;;;-2.71;70.63;101252.03;5082723;28;20143;-80
2022/01/23 14:10:34;;;;;;;34.13;16.45;;;;;;;-2.66;70.95;101243.84;5079449;28;20076;-79
2022/01/23 14:13:19;;;;;;;32.13;15.27;;;;;;;-2.77;70.41;101228.53;5097185;28;20055;-81
2022/01/23 14:15:49;;;;;;;28.67;13.52;;;;;;;-2.84;70.63;101241.59;5094474;28;20058;-82
2022/01/23 14:18:21;;;;;;;28.88;14.27;;;;;;;-2.76;71.18;101253.31;5085472;28;20052;-81
2022/01/23 14:20:59;;;;;;;29.85;13.98;;;;;;;-2.93;71.18;101236.63;5074883;28;20080;-78
2022/01/23 14:23:27;;;;;;;31.45;15.50;;;;;;;-2.90;70.96;101264.16;5073984;28;20053;-81
2022/01/23 14:25:59;;;;;;;26.63;12.43;;;;;;;-2.94;70.84;101273.22;5074873;28;20055;-83
2022/01/23 14:28:36;;;;;;;22.95;11.35;;;;;;;-3.13;71.38;101265.75;5073909;28;20048;-82
2022/01/23 14:31:15;;;;;;;26.35;12.48;;;;;;;-3.09;71.27;101295.91;5073997;28;20487;-83
2022/01/23 14:33:44;;;;;;;26.35;13.60;;;;;;;-3.11;71.51;101287.22;5073703;28;20049;-83
2022/01/23 14:36:33;;;;;;;26.05;11.30;;;;;;;-3.16;71.46;101288.53;5073565;28;20512;-82
2022/01/23 14:39:05;;;;;;;;;;;;;;;-3.33;71.35;101299.91;5090070;28;20072;-81
2022/01/23 14:41:35;;;;;;;24.83;11.93;;;;;;;-3.33;71.71;101293.94;5073379;28;19924;-80
2022/01/23 14:44:14;;;;;;;;;;;;;;;-3.39;71.60;101298.53;5074065;28;20060;-81
2022/01/23 14:46:46;;;;;;;27.88;13.30;;;;;;;-3.36;71.78;101302.22;5055638;28;20035;-80
2022/01/23 14:49:21;;;;;;;24.92;11.57;;;;;;;-3.34;71.75;101304.91;5073417;28;20060;-78
2022/01/23 14:51:49;;;;;;;28.48;12.82;;;;;;;-3.36;71.79;101314.09;5074336;28;20140;-82
2022/01/23 14:54:17;;;;;;;29.88;12.90;;;;;;;-3.38;72.16;101320.75;5073303;28;20086;-81
2022/01/23 14:56:44;;;;;;;28.77;13.90;;;;;;;-3.46;72.51;101312.47;5073269;28;20053;-81
2022/01/23 14:59:14;;;;;;;27.33;13.18;;;;;;;-3.59;72.38;101300.34;5073500;28;20082;-79
2022/01/23 15:01:43;;;;;;;27.98;13.13;;;;;;;-3.57;72.66;101314.13;5073874;28;20098;-79
2022/01/23 15:04:12;;;;;;;24.23;11.70;;;;;;;-3.48;72.63;101339.56;5074455;28;20087;-81
2022/01/23 15:06:46;;;;;;;20.63;10.82;;;;;;;-3.56;72.92;101328.69;5073812;28;20417;-79
2022/01/23 15:09:15;;;;;;;25.45;12.80;;;;;;;-3.47;72.84;101345.53;5078020;28;20139;-79
2022/01/23 15:11:43;;;;;;;26.15;13.35;;;;;;;-3.47;72.73;101343.00;5081005;28;20056;-82
2022/01/23 15:14:10;;;;;;;29.45;14.98;;;;;;;-3.47;72.80;101331.09;5078134;28;20060;-81
2022/01/23 15:16:39;;;;;;;25.70;13.40;;;;;;;-3.44;72.54;101338.13;5056910;28;20581;-80
2022/01/23 15:19:09;;;;;;;28.80;14.52;;;;;;;-3.45;72.72;101347.47;5061548;28;20055;-81
2022/01/23 15:21:36;;;;;;;31.25;14.48;;;;;;;-3.37;72.68;101359.22;5071697;28;20474;-82